Time;durP1;ratioP1;P1;durP2;ratioP2;P2;SDS_P1;SDS_P2;PMS_P1;PMS_P2;Temp;Humidity;BMP_temperature;BMP_pressure;BME280_temperature;BME280_humidity;BME280_pressure;Samples;Min_cycle;Max_cycle;Signal;HPM_P1;HPM_P2
2023/08/13 00:00:45;;;;;;;0.47;0.17;;;;;;;16.60;100.00;99366.34;7394428;19;20014;-78
2023/08/13 00:03:11;;;;;;;1.40;0.40;;;;;;;16.17;100.00;99359.88;7390688;19;20608;-79
2023/08/13 00:05:37;;;;;;;0.20;0.10;;;;;;;15.32;100.00;99368.69;7393927;19;20011;-78
2023/08/13 00:08:04;;;;;;;0.10;0.10;;;;;;;15.01;100.00;99367.09;7392288;19;20010;-78
2023/08/13 00:10:30;;;;;;;0.50;0.10;;;;;;;14.94;100.00;99364.81;7392288;19;20026;-77
2023/08/13 00:12:56;;;;;;;0.10;0.10;;;;;;;16.34;100.00;99371.69;7389616;19;20021;-78
2023/08/13 00:15:22;;;;;;;0.30;0.28;;;;;;;15.90;100.00;99364.47;7391984;19;20025;-78
2023/08/13 00:17:48;;;;;;;0.10;0.10;;;;;;;16.09;100.00;99372.94;7391963;19;20034;-78
2023/08/13 00:20:15;;;;;;;0.22;0.10;;;;;;;16.19;100.00;99367.75;7392826;19;20019;-78
2023/08/13 00:22:41;;;;;;;0.32;0.32;;;;;;;15.34;100.00;99376.59;7389489;19;20035;-78
2023/08/13 00:25:07;;;;;;;0.13;0.13;;;;;;;15.14;100.00;99361.66;7392167;19;20036;-78
2023/08/13 00:27:33;;;;;;;0.20;0.20;;;;;;;15.12;100.00;99364.22;7396599;19;20015;-78
2023/08/13 00:30:00;;;;;;;0.40;0.10;;;;;;;15.04;100.00;99359.69;7388989;19;20015;-78
2023/08/13 00:32:26;;;;;;;5.07;0.85;;;;;;;15.01;100.00;99361.47;7391700;19;20362;-78
2023/08/13 00:34:52;;;;;;;0.95;0.55;;;;;;;14.99;100.00;99366.84;7390946;19;20018;-77
2023/08/13 00:37:18;;;;;;;7.53;0.20;;;;;;;14.97;100.00;99372.22;7390882;19;20010;-78
2023/08/13 00:39:44;;;;;;;0.75;0.15;;;;;;;14.99;100.00;99374.50;7389124;19;20022;-78
2023/08/13 00:42:10;;;;;;;5.03;0.30;;;;;;;15.01;100.00;99366.31;7388334;19;20011;-79
2023/08/13 00:44:37;;;;;;;0.43;0.20;;;;;;;14.98;100.00;99368.13;7388902;19;20010;-78
2023/08/13 00:47:03;;;;;;;1.13;0.30;;;;;;;14.97;100.00;99369.41;7394463;19;20018;-78
2023/08/13 00:49:29;;;;;;;0.20;0.20;;;;;;;14.97;100.00;99361.00;7390485;19;20014;-79
2023/08/13 00:51:55;;;;;;;0.10;0.10;;;;;;;14.99;100.00;99363.28;7391216;19;20014;-78
2023/08/13 00:54:22;;;;;;;0.05;0.05;;;;;;;14.99;100.00;99361.25;7386820;19;20114;-78
2023/08/13 00:56:51;;;;;;;0.73;0.55;;;;;;;14.98;100.00;99356.94;7391900;19;20045;-78
2023/08/13 00:59:18;;;;;;;0.03;0.00;;;;;;;14.94;100.00;99356.41;7389577;19;20018;-78
2023/08/13 01:01:44;;;;;;;0.57;0.45;;;;;;;14.87;100.00;99356.22;7389417;19;20480;-78
2023/08/13 01:04:10;;;;;;;1.17;0.30;;;;;;;14.78;100.00;99351.66;7387579;19;20039;-77
2023/08/13 01:06:59;;;;;;;0.82;0.30;;;;;;;14.81;100.00;99361.09;7393757;19;20467;-78
2023/08/13 01:09:40;;;;;;;0.10;0.10;;;;;;;14.68;100.00;99361.66;7387304;19;20014;-78
2023/08/13 01:12:16;;;;;;;5.22;0.63;;;;;;;14.54;100.00;99359.13;7389119;19;20042;-78
2023/08/13 01:15:03;;;;;;;0.52;0.20;;;;;;;14.40;100.00;99364.53;7387441;19;20441;-78
2023/08/13 01:17:30;;;;;;;0.52;0.20;;;;;;;14.23;100.00;99352.56;7392567;19;20022;-78
2023/08/13 01:19:59;;;;;;;0.40;0.20;;;;;;;14.27;100.00;99346.72;7390998;19;20379;-78
2023/08/13 01:22:27;;;;;;;0.10;0.10;;;;;;;14.47;100.00;99354.81;7390618;19;20026;-78
2023/08/13 01:24:54;;;;;;;0.35;0.35;;;;;;;14.05;100.00;99357.97;7386170;19;20006;-78
2023/08/13 01:27:39;;;;;;;1.27;0.57;;;;;;;13.93;100.00;99364.84;7392257;19;20429;-78
2023/08/13 01:30:14;;;;;;;0.73;0.13;;;;;;;17.02;100.00;99359.13;7387628;19;20010;-78
2023/08/13 01:32:48;;;;;;;0.68;0.40;;;;;;;16.04;100.00;99356.94;7387640;19;20011;-78
2023/08/13 01:35:16;;;;;;;0.73;0.30;;;;;;;14.37;100.00;99368.38;7390196;19;20018;-78
2023/08/13 01:37:43;;;;;;;0.38;0.15;;;;;;;14.43;100.00;99366.31;7390932;19;20342;-78
2023/08/13 01:40:10;;;;;;;0.17;0.17;;;;;;;14.30;100.00;99359.72;7388410;19;20477;-78
2023/08/13 01:42:36;;;;;;;0.30;0.10;;;;;;;13.88;100.00;99365.63;7389471;19;20007;-78
2023/08/13 01:45:03;;;;;;;0.35;0.30;;;;;;;13.76;100.00;99362.06;7389838;19;20357;-78
2023/08/13 01:47:29;;;;;;;0.70;0.30;;;;;;;15.82;100.00;99354.31;7386768;19;20019;-78
2023/08/13 01:49:55;;;;;;;1.30;0.47;;;;;;;18.29;100.00;99349.97;7389195;19;20011;-78
2023/08/13 01:52:22;;;;;;;0.30;0.30;;;;;;;18.50;100.00;99345.22;7390209;19;20022;-78
2023/08/13 01:54:48;;;;;;;1.67;0.40;;;;;;;18.31;100.00;99353.00;7393790;19;20400;-78
2023/08/13 01:57:14;;;;;;;8.20;0.75;;;;;;;16.24;100.00;99342.41;7400558;19;20026;-78
2023/08/13 01:59:40;;;;;;;0.77;0.50;;;;;;;16.31;100.00;99338.25;7396823;19;20021;-78
2023/08/13 02:02:07;;;;;;;0.28;0.28;;;;;;;16.20;100.00;99336.31;7398413;19;20492;-78
2023/08/13 02:04:33;;;;;;;0.10;0.10;;;;;;;15.80;100.00;99331.63;7393243;19;20022;-78
2023/08/13 02:06:59;;;;;;;0.20;0.20;;;;;;;15.70;100.00;99336.81;7396483;19;20016;-78
2023/08/13 02:09:26;;;;;;;0.15;0.10;;;;;;;15.58;100.00;99351.44;7393132;19;20014;-78
2023/08/13 02:11:52;;;;;;;0.30;0.17;;;;;;;15.26;100.00;99350.38;7395267;19;20029;-78
2023/08/13 02:14:18;;;;;;;0.63;0.25;;;;;;;15.55;100.00;99358.13;7391117;19;20508;-78
2023/08/13 02:16:44;;;;;;;0.57;0.30;;;;;;;15.45;100.00;99351.28;7393113;19;20018;-78
2023/08/13 02:19:10;;;;;;;4.78;0.52;;;;;;;15.08;100.00;99355.34;7393923;19;20019;-78
2023/08/13 02:21:36;;;;;;;0.20;0.10;;;;;;;14.65;100.00;99362.69;7395400;19;20025;-78
2023/08/13 02:24:02;;;;;;;0.20;0.20;;;;;;;14.91;100.00;99359.50;7394745;19;20096;-78
2023/08/13 02:26:30;;;;;;;0.30;0.30;;;;;;;15.17;100.00;99355.03;7396953;19;20026;-78
2023/08/13 02:28:57;;;;;;;0.22;0.10;;;;;;;15.78;100.00;99348.22;7392888;19;20018;-78
2023/08/13 02:31:23;;;;;;;0.45;0.20;;;;;;;18.92;100.00;99355.41;7393596;19;20504;-78
2023/08/13 02:33:49;;;;;;;0.10;0.10;;;;;;;16.39;100.00;99351.22;7396297;19;20371;-78
2023/08/13 02:36:15;;;;;;;1.23;0.20;;;;;;;15.52;100.00;99350.75;7395148;19;20010;-78
2023/08/13 02:38:41;;;;;;;0.20;0.20;;;;;;;24.02;100.00;99340.84;7393596;19;20018;-77
2023/08/13 02:41:07;;;;;;;0.30;0.30;;;;;;;19.72;100.00;99343.31;7395442;19;20014;-78
2023/08/13 02:43:49;;;;;;;0.10;0.10;;;;;;;16.23;100.00;99345.75;7391749;19;20019;-78
2023/08/13 02:46:15;;;;;;;0.90;0.32;;;;;;;22.10;100.00;99342.00;7397173;19;20411;-78
2023/08/13 02:48:42;;;;;;;0.10;0.00;;;;;;;16.98;100.00;99339.00;7396701;19;20018;-79
2023/08/13 02:51:08;;;;;;;6.68;0.45;;;;;;;24.76;100.00;99334.31;7393434;19;20022;-78
2023/08/13 02:53:34;;;;;;;0.20;0.20;;;;;;;16.84;100.00;99350.69;7392132;19;20036;-78
2023/08/13 02:56:00;;;;;;;0.65;0.43;;;;;;;25.28;100.00;99341.44;7394982;19;20450;-78
2023/08/13 02:58:26;;;;;;;0.10;0.10;;;;;;;18.28;100.00;99356.94;7396783;19;20050;-77
2023/08/13 03:00:52;;;;;;;0.17;0.10;;;;;;;14.99;100.00;99352.81;7392824;19;20412;-78
2023/08/13 03:03:18;;;;;;;0.60;0.32;;;;;;;15.22;100.00;99347.09;7391444;19;20014;-79
2023/08/13 03:05:44;;;;;;;0.45;0.28;;;;;;;17.33;100.00;99340.78;7392442;19;20373;-78
2023/08/13 03:08:10;;;;;;;0.20;0.20;;;;;;;24.28;100.00;99327.41;7396621;19;20018;-78
2023/08/13 03:10:37;;;;;;;0.50;0.30;;;;;;;26.48;100.00;99332.38;7399448;19;20011;-78
2023/08/13 03:13:03;;;;;;;0.25;0.25;;;;;;;27.40;93.34;99334.91;7391725;19;20036;-78
2023/08/13 03:15:29;;;;;;;0.10;0.10;;;;;;;26.73;97.97;99346.38;7393185;19;20042;-78
2023/08/13 03:17:55;;;;;;;0.20;0.20;;;;;;;30.23;78.68;99344.69;7392422;19;20018;-78
2023/08/13 03:20:23;;;;;;;2.05;0.45;;;;;;;31.15;71.40;99335.09;7391204;19;20010;-78
2023/08/13 03:22:50;;;;;;;0.38;0.10;;;;;;;30.24;74.47;99337.53;7393770;19;20011;-78
2023/08/13 03:25:16;;;;;;;0.30;0.20;;;;;;;29.83;72.40;99340.06;7395163;19;20473;-78
2023/08/13 03:27:42;;;;;;;0.10;0.10;;;;;;;29.29;75.96;99350.91;7392016;19;20476;-78
2023/08/13 03:30:15;;;;;;;0.10;0.10;;;;;;;29.95;75.19;99355.16;7390115;19;20018;-78
2023/08/13 03:32:42;;;;;;;0.20;0.10;;;;;;;29.42;76.43;99343.81;7392728;19;20035;-78
2023/08/13 03:35:10;;;;;;;0.50;0.50;;;;;;;29.84;75.79;99353.03;7393429;19;20107;-78
2023/08/13 03:37:36;;;;;;;0.40;0.20;;;;;;;29.89;75.69;99349.03;7390835;19;20777;-78
2023/08/13 03:40:02;;;;;;;17.52;0.55;;;;;;;30.56;73.05;99350.25;7393848;19;20021;-78
2023/08/13 03:42:28;;;;;;;0.10;0.10;;;;;;;30.85;70.99;99353.44;7393882;19;20018;-78
2023/08/13 03:44:55;;;;;;;0.30;0.22;;;;;;;31.55;68.23;99341.66;7393060;19;20361;-78
2023/08/13 03:47:21;;;;;;;0.40;0.40;;;;;;;32.23;65.14;99338.91;7394579;19;20018;-79
2023/08/13 03:49:47;;;;;;;0.63;0.15;;;;;;;32.34;63.68;99338.03;7389740;19;20022;-78
2023/08/13 03:52:13;;;;;;;1.17;0.10;;;;;;;32.56;62.24;99330.56;7392105;19;20030;-78
2023/08/13 03:54:39;;;;;;;0.35;0.25;;;;;;;32.26;61.73;99326.84;7390815;19;20034;-79
2023/08/13 03:57:07;;;;;;;0.30;0.15;;;;;;;31.57;63.56;99322.38;7394971;19;20014;-78
2023/08/13 03:59:33;;;;;;;0.30;0.10;;;;;;;31.19;64.91;99320.94;7390567;19;20548;-79
2023/08/13 04:01:59;;;;;;;0.10;0.10;;;;;;;30.92;65.64;99320.06;7391325;19;20023;-78
2023/08/13 04:04:25;;;;;;;0.85;0.30;;;;;;;30.92;65.51;99317.94;7390867;19;20018;-78
2023/08/13 04:06:52;;;;;;;0.13;0.13;;;;;;;31.71;62.77;99316.63;7389849;19;20356;-78
2023/08/13 04:09:18;;;;;;;0.15;0.03;;;;;;;31.09;63.89;99316.72;7389950;19;20022;-78
2023/08/13 04:11:44;;;;;;;0.17;0.10;;;;;;;31.10;63.43;99316.09;7395569;19;20014;-79
2023/08/13 04:14:10;;;;;;;0.60;0.57;;;;;;;30.40;65.15;99314.81;7388664;19;20010;-78
2023/08/13 04:16:36;;;;;;;0.70;0.30;;;;;;;29.57;66.80;99320.38;7388355;19;20015;-78
2023/08/13 04:19:03;;;;;;;5.15;0.45;;;;;;;29.48;67.72;99322.00;7391498;19;20006;-79
2023/08/13 04:21:30;;;;;;;0.55;0.10;;;;;;;29.09;71.84;99327.34;7389913;19;20019;-78
2023/08/13 04:23:56;;;;;;;0.28;0.15;;;;;;;28.15;75.16;99330.31;7390578;19;20485;-78
2023/08/13 04:26:23;;;;;;;3.95;0.90;;;;;;;27.29;83.03;99327.69;7394305;19;20481;-78
2023/08/13 04:28:51;;;;;;;0.10;0.10;;;;;;;27.05;87.06;99305.91;7388425;19;20094;-78
2023/08/13 04:31:20;;;;;;;0.20;0.10;;;;;;;26.41;95.26;99303.94;7391903;19;20029;-79
2023/08/13 04:33:48;;;;;;;0.10;0.10;;;;;;;26.22;95.79;99294.00;7392242;19;20030;-79
2023/08/13 04:36:15;;;;;;;0.10;0.00;;;;;;;27.13;91.47;99302.91;7394043;19;20430;-79
2023/08/13 04:38:41;;;;;;;2.17;0.68;;;;;;;26.76;90.61;99290.91;7390474;19;20010;-78
2023/08/13 04:41:07;;;;;;;0.30;0.10;;;;;;;26.29;96.15;99298.81;7389129;19;20465;-79
2023/08/13 04:43:39;;;;;;;0.10;0.00;;;;;;;27.92;87.40;99301.44;7388866;19;20019;-78
2023/08/13 04:46:06;;;;;;;0.10;0.10;;;;;;;28.07;82.65;99306.09;7393536;19;20025;-79
2023/08/13 04:48:45;;;;;;;0.20;0.10;;;;;;;28.17;80.56;99310.41;7388763;19;20011;-79
2023/08/13 04:51:13;;;;;;;0.10;0.00;;;;;;;28.13;79.44;99304.38;7389926;19;20022;-79
2023/08/13 04:53:39;;;;;;;0.40;0.17;;;;;;;28.39;78.34;99296.84;7389859;19;20006;-78
2023/08/13 04:56:08;;;;;;;0.10;0.10;;;;;;;30.21;71.27;99301.47;7392844;19;20018;-78
2023/08/13 04:58:36;;;;;;;0.38;0.10;;;;;;;30.02;69.26;99295.25;7389031;19;20010;-78
2023/08/13 05:01:04;;;;;;;0.10;0.00;;;;;;;29.04;72.80;99296.19;7390053;19;20028;-79
2023/08/13 05:03:31;;;;;;;0.32;0.25;;;;;;;28.89;74.10;99302.34;7388689;19;20014;-78
2023/08/13 05:05:58;;;;;;;0.10;0.10;;;;;;;29.37;72.79;99301.91;7392566;19;20023;-78
2023/08/13 05:08:24;;;;;;;0.68;0.20;;;;;;;22.23;100.00;99309.84;7388424;19;20015;-78
2023/08/13 05:10:50;;;;;;;0.20;0.10;;;;;;;21.34;100.00;99306.38;7391938;19;20062;-79
2023/08/13 05:13:17;;;;;;;0.47;0.10;;;;;;;23.63;100.00;99295.50;7390991;19;20014;-78
2023/08/13 05:15:43;;;;;;;0.10;0.03;;;;;;;28.79;87.41;99287.34;7391443;19;20477;-78
2023/08/13 05:18:09;;;;;;;2.25;0.40;;;;;;;29.82;81.25;99292.59;7389069;19;20014;-78
2023/08/13 05:20:35;;;;;;;0.20;0.10;;;;;;;29.87;77.15;99285.75;7388574;19;20014;-78
2023/08/13 05:23:02;;;;;;;0.30;0.20;;;;;;;30.01;74.59;99293.72;7387818;19;20015;-78
2023/08/13 05:25:28;;;;;;;3.50;0.70;;;;;;;29.50;77.12;99293.44;7390726;19;20367;-78
2023/08/13 05:27:55;;;;;;;0.75;0.20;;;;;;;29.46;77.11;99301.03;7392790;19;20018;-78
2023/08/13 05:30:22;;;;;;;1.88;0.22;;;;;;;29.80;76.07;99288.88;7392733;19;20127;-78
2023/08/13 05:32:48;;;;;;;2.40;0.30;;;;;;;30.19;74.75;99286.94;7397096;19;20107;-78
2023/08/13 05:35:14;;;;;;;0.10;0.00;;;;;;;31.53;69.32;99292.59;7399491;19;20485;-78
2023/08/13 05:37:41;;;;;;;0.45;0.13;;;;;;;30.75;71.51;99298.22;7395579;19;20019;-78
2023/08/13 05:40:08;;;;;;;0.10;0.10;;;;;;;31.45;69.09;99292.16;7395484;19;20018;-78
2023/08/13 05:42:36;;;;;;;3.03;0.20;;;;;;;31.81;67.65;99302.78;7396779;19;20010;-78
2023/08/13 05:45:03;;;;;;;0.13;0.10;;;;;;;32.21;65.83;99302.06;7397742;19;20541;-79
2023/08/13 05:47:29;;;;;;;2.20;0.17;;;;;;;32.57;63.72;99303.97;7395726;19;20010;-78
2023/08/13 05:49:55;;;;;;;0.65;0.30;;;;;;;32.45;63.35;99309.09;7393419;19;20019;-78
2023/08/13 05:52:24;;;;;;;0.10;0.08;;;;;;;32.44;63.20;99310.50;7400224;19;20011;-78
2023/08/13 05:54:50;;;;;;;0.10;0.00;;;;;;;31.09;65.84;99305.97;7394808;19;20477;-78
2023/08/13 05:57:16;;;;;;;0.28;0.28;;;;;;;25.62;91.70;99311.34;7398143;19;20024;-79
2023/08/13 05:59:42;;;;;;;0.30;0.30;;;;;;;30.59;80.88;99311.63;7395736;19;20036;-78
2023/08/13 06:02:08;;;;;;;0.10;0.10;;;;;;;22.85;100.00;99323.34;7395982;19;20074;-78
2023/08/13 06:04:35;;;;;;;0.50;0.35;;;;;;;31.21;80.07;99311.66;7395161;19;20023;-78
2023/08/13 06:07:06;;;;;;;1.95;0.22;;;;;;;26.10;100.00;99321.59;7395901;19;20019;-78
2023/08/13 06:09:32;;;;;;;0.30;0.15;;;;;;;23.31;100.00;99327.47;7394440;19;20496;-79
2023/08/13 06:11:58;;;;;;;0.30;0.30;;;;;;;21.93;100.00;99333.31;7397990;19;20022;-78
2023/08/13 06:14:24;;;;;;;0.10;0.10;;;;;;;21.49;100.00;99329.06;7394548;19;20019;-78
2023/08/13 06:16:50;;;;;;;0.10;0.10;;;;;;;25.14;100.00;99319.59;7392928;19;20035;-78
2023/08/13 06:19:17;;;;;;;1.08;0.40;;;;;;;31.89;79.11;99311.84;7395350;19;20039;-79
2023/08/13 06:21:44;;;;;;;0.10;0.10;;;;;;;32.82;72.14;99318.25;7395223;19;20351;-78
2023/08/13 06:24:10;;;;;;;12.75;0.30;;;;;;;33.46;67.55;99314.16;7391892;19;20019;-79
2023/08/13 06:26:36;;;;;;;5.47;0.20;;;;;;;32.94;67.56;99320.25;7398040;19;20349;-78
2023/08/13 06:29:02;;;;;;;0.10;0.10;;;;;;;33.96;62.94;99313.63;7392591;19;20081;-78
2023/08/13 06:31:28;;;;;;;0.00;0.00;;;;;;;34.06;62.29;99314.13;7394285;19;20407;-78
2023/08/13 06:33:54;;;;;;;0.20;0.10;;;;;;;34.41;60.11;99319.31;7395020;19;20018;-79
2023/08/13 06:36:21;;;;;;;0.52;0.22;;;;;;;32.65;63.70;99320.94;7397321;19;20018;-78
2023/08/13 06:38:47;;;;;;;0.73;0.10;;;;;;;32.34;64.28;99318.63;7391218;19;20014;-79
2023/08/13 06:41:13;;;;;;;0.10;0.10;;;;;;;28.69;70.07;99330.44;7392735;19;20014;-78
2023/08/13 06:43:39;;;;;;;0.10;0.10;;;;;;;23.33;100.00;99339.06;7395398;19;20036;-78
2023/08/13 06:46:05;;;;;;;0.80;0.00;;;;;;;22.10;100.00;99347.69;7397477;19;20015;-78
2023/08/13 06:48:33;;;;;;;0.20;0.20;;;;;;;22.02;100.00;99340.50;7392253;19;20587;-79
2023/08/13 06:50:59;;;;;;;3.10;0.20;;;;;;;22.15;100.00;99338.25;7394341;19;20018;-78
2023/08/13 06:53:26;;;;;;;2.53;0.45;;;;;;;22.20;100.00;99334.44;7391562;19;20042;-78
2023/08/13 06:55:52;;;;;;;0.00;0.00;;;;;;;22.20;100.00;99339.38;7397776;19;20018;-78
2023/08/13 06:58:18;;;;;;;1.20;0.32;;;;;;;22.24;100.00;99331.22;7395556;19;20052;-78
2023/08/13 07:00:46;;;;;;;3.60;0.17;;;;;;;22.26;100.00;99337.81;7396187;19;20010;-78
2023/08/13 07:03:12;;;;;;;6.60;0.52;;;;;;;23.64;100.00;99339.63;7391039;19;20026;-78
2023/08/13 07:05:40;;;;;;;0.10;0.10;;;;;;;22.33;100.00;99337.06;7394472;19;20096;-78
2023/08/13 07:08:06;;;;;;;0.10;0.10;;;;;;;22.29;100.00;99339.53;7391933;19;20031;-78
2023/08/13 07:10:33;;;;;;;0.00;0.00;;;;;;;22.29;100.00;99336.69;7390894;19;20051;-78
2023/08/13 07:12:59;;;;;;;1.13;0.43;;;;;;;22.23;100.00;99341.81;7392022;19;20030;-78
2023/08/13 07:15:26;;;;;;;0.10;0.00;;;;;;;23.11;100.00;99346.31;7397131;19;20074;-78
2023/08/13 07:17:52;;;;;;;3.40;0.20;;;;;;;24.97;100.00;99333.88;7396632;19;20026;-78
2023/08/13 07:20:18;;;;;;;1.00;0.20;;;;;;;22.24;100.00;99334.81;7396132;19;20022;-78
2023/08/13 07:22:47;;;;;;;0.75;0.45;;;;;;;19.93;100.00;99332.75;7391197;19;20022;-78
2023/08/13 07:25:13;;;;;;;0.10;0.10;;;;;;;22.59;100.00;99335.91;7394555;19;20026;-79
2023/08/13 07:27:42;;;;;;;5.93;1.65;;;;;;;22.58;100.00;99340.81;7394292;19;20106;-78
2023/08/13 07:30:10;;;;;;;0.13;0.13;;;;;;;22.65;100.00;99330.03;7390553;19;20026;-78
2023/08/13 07:32:38;;;;;;;1.15;0.13;;;;;;;22.75;100.00;99334.56;7393545;19;20676;-78
2023/08/13 07:35:06;;;;;;;0.17;0.00;;;;;;;22.41;100.00;99332.16;7394872;19;20018;-79
2023/08/13 07:37:33;;;;;;;0.10;0.00;;;;;;;25.19;100.00;99322.19;7392039;19;20025;-78
2023/08/13 07:40:00;;;;;;;0.35;0.20;;;;;;;25.09;100.00;99314.91;7391479;19;20015;-78
2023/08/13 07:42:26;;;;;;;2.25;0.35;;;;;;;26.00;100.00;99317.97;7390283;19;20018;-79
2023/08/13 07:44:52;;;;;;;0.15;0.00;;;;;;;24.27;100.00;99320.19;7390404;19;20010;-78
2023/08/13 07:47:19;;;;;;;0.43;0.10;;;;;;;20.84;100.00;99328.47;7390702;19;20015;-79
2023/08/13 07:49:45;;;;;;;1.00;0.30;;;;;;;20.49;100.00;99320.75;7393751;19;20033;-78
2023/08/13 07:52:11;;;;;;;0.03;0.00;;;;;;;19.46;100.00;99318.03;7389940;19;20018;-78
2023/08/13 07:54:37;;;;;;;3.42;1.02;;;;;;;18.73;100.00;99316.03;7389901;19;20098;-78
2023/08/13 07:57:07;;;;;;;0.35;0.10;;;;;;;19.15;100.00;99322.56;7396304;19;20014;-78
2023/08/13 07:59:33;;;;;;;2.28;0.43;;;;;;;19.22;100.00;99321.88;7392731;19;20022;-78
2023/08/13 08:01:59;;;;;;;0.20;0.10;;;;;;;18.63;100.00;99322.66;7392355;19;20014;-78
2023/08/13 08:04:25;;;;;;;0.80;0.43;;;;;;;20.56;100.00;99320.03;7392634;19;20131;-78
2023/08/13 08:06:51;;;;;;;0.30;0.20;;;;;;;23.70;100.00;99312.47;7389246;19;20022;-78
2023/08/13 08:09:18;;;;;;;0.15;0.15;;;;;;;20.46;100.00;99321.09;7388611;19;20095;-78
2023/08/13 08:11:44;;;;;;;0.10;0.00;;;;;;;21.07;100.00;99325.78;7392310;19;20035;-78
2023/08/13 08:14:10;;;;;;;0.13;0.10;;;;;;;26.00;100.00;99312.25;7388423;19;20019;-78
2023/08/13 08:16:36;;;;;;;0.20;0.20;;;;;;;25.15;100.00;99321.09;7391363;19;20353;-78
2023/08/13 08:19:03;;;;;;;0.20;0.00;;;;;;;21.75;100.00;99326.66;7390329;19;20111;-78
2023/08/13 08:21:29;;;;;;;1.88;0.20;;;;;;;27.46;100.00;99323.94;7391513;19;20085;-78
2023/08/13 08:23:55;;;;;;;0.10;0.10;;;;;;;22.55;100.00;99318.47;7388844;19;20366;-78
2023/08/13 08:26:21;;;;;;;0.85;0.17;;;;;;;24.01;100.00;99313.75;7395524;19;20014;-79
2023/08/13 08:28:47;;;;;;;0.68;0.20;;;;;;;24.81;100.00;99321.91;7389554;19;20019;-79
2023/08/13 08:31:13;;;;;;;0.00;0.00;;;;;;;25.60;100.00;99319.75;7391859;19;20030;-79
2023/08/13 08:33:39;;;;;;;0.20;0.20;;;;;;;20.35;100.00;99322.94;7391088;19;20035;-79
2023/08/13 08:36:05;;;;;;;0.10;0.10;;;;;;;21.64;100.00;99326.28;7395217;19;20087;-78
2023/08/13 08:38:32;;;;;;;0.85;0.20;;;;;;;22.77;100.00;99325.44;7390093;19;20010;-78
2023/08/13 08:40:59;;;;;;;0.30;0.10;;;;;;;23.18;100.00;99327.75;7388915;19;20037;-79
2023/08/13 08:43:30;;;;;;;0.95;0.10;;;;;;;23.24;100.00;99325.44;7392851;19;20018;-78
2023/08/13 08:45:57;;;;;;;0.30;0.30;;;;;;;21.75;100.00;99328.75;7393469;19;20026;-78
2023/08/13 08:48:28;;;;;;;1.95;0.50;;;;;;;24.43;100.00;99316.59;7388098;19;20516;-78
2023/08/13 08:50:54;;;;;;;2.53;0.20;;;;;;;20.76;100.00;99322.03;7389077;19;20028;-79
2023/08/13 08:53:21;;;;;;;2.92;0.10;;;;;;;21.89;100.00;99327.28;7388102;19;20018;-79
2023/08/13 08:55:48;;;;;;;0.10;0.08;;;;;;;22.04;100.00;99332.94;7393942;19;20018;-78
2023/08/13 08:58:15;;;;;;;0.20;0.20;;;;;;;20.15;100.00;99334.25;7389159;19;20017;-78
2023/08/13 09:00:41;;;;;;;0.15;0.15;;;;;;;22.50;100.00;99340.06;7390646;19;20359;-78
2023/08/13 09:03:07;;;;;;;0.08;0.03;;;;;;;27.14;100.00;99330.16;7395429;19;20472;-78
2023/08/13 09:05:34;;;;;;;1.48;0.20;;;;;;;32.43;84.80;99323.41;7401363;19;20014;-78
2023/08/13 09:08:05;;;;;;;1.20;0.20;;;;;;;32.97;77.96;99316.03;7397967;19;20042;-78
2023/08/13 09:10:31;;;;;;;;;;;;;;;33.92;73.80;99307.69;7395911;19;20030;-79
2023/08/13 09:12:58;;;;;;;0.10;0.00;;;;;;;28.78;94.54;99323.88;7393087;19;19918;-79
2023/08/13 09:15:24;;;;;;;0.52;0.20;;;;;;;23.99;100.00;99324.19;7398870;19;20512;-78
2023/08/13 09:17:50;;;;;;;0.15;0.10;;;;;;;22.76;100.00;99323.94;7398257;19;20011;-78
2023/08/13 09:20:19;;;;;;;2.20;0.30;;;;;;;19.72;100.00;99322.78;7396204;19;20387;-79
2023/08/13 09:22:46;;;;;;;0.10;0.10;;;;;;;19.08;100.00;99320.41;7397351;19;20011;-79
2023/08/13 09:25:14;;;;;;;0.10;0.10;;;;;;;22.62;100.00;99317.75;7396946;19;20027;-79
2023/08/13 09:27:41;;;;;;;0.17;0.17;;;;;;;21.39;100.00;99320.38;7394404;19;20061;-79
2023/08/13 09:30:14;;;;;;;1.25;0.10;;;;;;;19.63;100.00;99319.13;7395447;19;20528;-78
2023/08/13 09:32:41;;;;;;;2.30;0.20;;;;;;;20.09;100.00;99313.84;7396867;19;20026;-78
2023/08/13 09:35:07;;;;;;;0.05;0.00;;;;;;;23.39;100.00;99325.38;7397278;19;20018;-78
2023/08/13 09:37:34;;;;;;;0.10;0.10;;;;;;;23.77;100.00;99308.81;7401251;19;20094;-79
2023/08/13 09:40:00;;;;;;;3.70;0.10;;;;;;;23.85;100.00;99309.50;7399364;19;20021;-78
2023/08/13 09:42:28;;;;;;;0.57;0.10;;;;;;;24.00;100.00;99303.69;7395052;19;20420;-79
2023/08/13 09:44:56;;;;;;;0.10;0.00;;;;;;;24.18;100.00;99300.91;7394771;19;20015;-78
2023/08/13 09:47:26;;;;;;;0.20;0.15;;;;;;;23.57;100.00;99301.38;7400020;19;20029;-79
2023/08/13 09:49:56;;;;;;;0.00;0.00;;;;;;;24.91;100.00;99294.25;7392599;19;20031;-80
2023/08/13 09:52:27;;;;;;;0.20;0.10;;;;;;;25.06;100.00;99299.75;7396659;19;20472;-79
2023/08/13 09:55:08;;;;;;;0.00;0.00;;;;;;;22.47;100.00;99295.81;7392780;19;20026;-79
2023/08/13 09:57:37;;;;;;;0.47;0.00;;;;;;;24.62;100.00;99293.25;7399509;19;20022;-79
2023/08/13 10:00:04;;;;;;;0.00;0.00;;;;;;;22.43;100.00;99303.97;7394780;19;20041;-79
2023/08/13 10:02:32;;;;;;;0.20;0.20;;;;;;;29.77;94.04;99290.88;7397041;19;20022;-78
2023/08/13 10:04:59;;;;;;;0.55;0.10;;;;;;;24.84;100.00;99286.53;7396539;19;20026;-79
2023/08/13 10:07:25;;;;;;;0.00;0.00;;;;;;;21.71;100.00;99288.69;7395428;19;20030;-79
2023/08/13 10:09:53;;;;;;;0.10;0.00;;;;;;;23.13;100.00;99280.44;7395197;19;20018;-79
2023/08/13 10:12:19;;;;;;;0.00;0.00;;;;;;;21.76;100.00;99284.91;7396241;19;20022;-78
2023/08/13 10:14:45;;;;;;;0.20;0.10;;;;;;;21.30;100.00;99284.09;7392417;19;20032;-79
2023/08/13 10:17:18;;;;;;;0.10;0.00;;;;;;;21.63;100.00;99287.94;7396741;19;20022;-79
2023/08/13 10:19:51;;;;;;;0.00;0.00;;;;;;;21.83;100.00;99279.25;7393821;19;20032;-79
2023/08/13 10:22:33;;;;;;;11.70;0.20;;;;;;;21.49;100.00;99283.75;7393542;19;20018;-78
2023/08/13 10:25:00;;;;;;;0.05;0.00;;;;;;;21.51;100.00;99303.78;7396289;19;20026;-79
2023/08/13 10:27:27;;;;;;;0.10;0.10;;;;;;;20.94;100.00;99320.97;7400446;19;20070;-79
2023/08/13 10:30:07;;;;;;;0.03;0.03;;;;;;;20.47;100.00;99314.88;7391929;19;20014;-80
2023/08/13 10:32:37;;;;;;;0.45;0.10;;;;;;;22.07;100.00;99316.88;7396959;19;20014;-79
2023/08/13 10:35:19;;;;;;;1.45;0.10;;;;;;;22.53;100.00;99321.91;7391636;19;20434;-79
2023/08/13 10:37:51;;;;;;;3.63;0.20;;;;;;;23.03;100.00;99319.28;7395001;19;20019;-78
2023/08/13 10:40:18;;;;;;;0.00;0.00;;;;;;;22.26;100.00;99303.78;7395672;19;20643;-79
2023/08/13 10:42:52;;;;;;;0.55;0.10;;;;;;;22.58;100.00;99317.34;7394630;19;20014;-79
2023/08/13 10:45:21;;;;;;;0.10;0.10;;;;;;;22.97;100.00;99313.84;7397520;19;20038;-79
2023/08/13 10:47:51;;;;;;;0.00;0.00;;;;;;;22.86;100.00;99319.94;7394985;19;20043;-79
2023/08/13 10:50:27;;;;;;;0.00;0.00;;;;;;;23.59;100.00;99321.47;7390342;19;20118;-79
2023/08/13 10:53:01;;;;;;;0.45;0.20;;;;;;;24.29;100.00;99312.56;7393541;19;20473;-79
2023/08/13 10:55:30;;;;;;;2.92;0.70;;;;;;;31.45;100.00;99303.69;7396575;19;20417;-80
2023/08/13 10:57:56;;;;;;;0.35;0.30;;;;;;;29.49;100.00;99314.91;7393294;19;20353;-79
2023/08/13 11:00:24;;;;;;;0.10;0.10;;;;;;;28.34;100.00;99318.72;7394769;19;20018;-79
2023/08/13 11:03:18;;;;;;;0.10;0.03;;;;;;;33.21;86.79;99314.38;7394204;19;20026;-79
2023/08/13 11:05:46;;;;;;;0.08;0.08;;;;;;;25.69;100.00;99311.22;7395370;19;20028;-79
2023/08/13 11:08:23;;;;;;;0.10;0.10;;;;;;;24.53;100.00;99313.84;7393394;19;20046;-79
2023/08/13 11:10:50;;;;;;;0.10;0.05;;;;;;;24.92;100.00;99315.69;7392762;19;20035;-79
2023/08/13 11:13:18;;;;;;;0.10;0.00;;;;;;;23.54;100.00;99313.91;7396493;19;20010;-79
2023/08/13 11:15:54;;;;;;;0.65;0.13;;;;;;;23.38;100.00;99317.44;7397780;19;20030;-79
2023/08/13 11:18:22;;;;;;;0.10;0.00;;;;;;;23.29;100.00;99315.94;7392639;19;20027;-79
2023/08/13 11:20:49;;;;;;;0.03;0.00;;;;;;;23.38;100.00;99323.88;7394331;19;20361;-79
2023/08/13 11:23:17;;;;;;;0.00;0.00;;;;;;;26.44;100.00;99332.06;7396826;19;20023;-78
2023/08/13 11:25:49;;;;;;;0.20;0.10;;;;;;;29.59;100.00;99324.13;7395468;19;20014;-78
2023/08/13 11:28:24;;;;;;;0.20;0.10;;;;;;;23.04;100.00;99335.00;7391446;19;20010;-80